KSLG/SLG METAR and TAF weather

Enter ICAO airport designator
Station Type Date Time Source
KSLG METAR 2021/03/02 16:56 UTC NOAA

KSLG 021656Z AUTO 18014G19KT 10SM CLR 11/M01 A3029 RMK AO2 SLP261 T01061011 TSNO


Station Type Date Time Source
KSLG Decoded METAR 2021/03/02 16:56 UTC NOAA

Siloam Springs, Smith Field Airport, AR, United States (KSLG) 36-12N 094-29W
Mar 02, 2021 - 11:56 AM EST / 2021.03.02 1656 UTC
Wind: from the S (180 degrees) at 16 MPH (14 KT) gusting to 22 MPH (19 KT):0
Visibility: 10 mile(s):0
Sky conditions: clear
Temperature: 51.1 F (10.6 C)
Dew Point: 30.0 F (-1.1 C)
Relative Humidity: 44%
Pressure (altimeter): 30.29 in. Hg (1025 hPa)
ob: KSLG 021656Z AUTO 18014G19KT 10SM CLR 11/M01 A3029 RMK AO2 SLP261 T01061011 TSNO
cycle: 17

Station Type Date Time Source
KSLG TAF UTC NOAA

Error!

Example: see airport list